Time;durP1;ratioP1;P1;durP2;ratioP2;P2;SDS_P1;SDS_P2;PMS_P1;PMS_P2;Temp;Humidity;BMP_temperature;BMP_pressure;BME280_temperature;BME280_humidity;BME280_pressure;Samples;Min_cycle;Max_cycle;Signal;HPM_P1;HPM_P2
2024/04/18 00:00:34;;;;;;;8.23;5.50;;;281.60;2278.40;;;;;;5401456;26;20803;-76
2024/04/18 00:03:00;;;;;;;9.98;6.18;;;281.70;2278.40;;;;;;5402907;26;20006;-77
2024/04/18 00:05:26;;;;;;;9.55;5.72;;;281.60;2278.40;;;;;;5386940;26;20024;-77
2024/04/18 00:07:52;;;;;;;9.93;5.75;;;281.60;2278.40;;;;;;5401110;26;19995;-77
2024/04/18 00:10:18;;;;;;;10.45;5.15;;;256.90;2252.80;;;;;;5404041;26;21261;-77
2024/04/18 00:12:44;;;;;;;11.70;5.75;;;281.60;2278.40;;;;;;5398780;26;20004;-77
2024/04/18 00:15:09;;;;;;;11.57;6.22;;;256.90;2252.80;;;;;;5392904;26;20456;-76
2024/04/18 00:17:36;;;;;;;8.80;5.38;;;256.90;2252.80;;;;;;5412382;26;20589;-77
2024/04/18 00:20:03;;;;;;;9.57;6.28;;;281.60;2278.40;;;;;;5400714;26;20007;-77
2024/04/18 00:22:30;;;;;;;10.15;6.38;;;256.90;2252.80;;;;;;5389833;26;20026;-77
2024/04/18 00:24:55;;;;;;;9.52;6.55;;;256.90;2252.80;;;;;;5401864;26;20067;-77
2024/04/18 00:27:21;;;;;;;9.15;6.07;;;256.90;2252.80;;;;;;5407540;26;20007;-77
2024/04/18 00:29:47;;;;;;;10.07;5.80;;;256.90;2252.80;;;;;;5408913;26;19996;-76
2024/04/18 00:32:14;;;;;;;10.77;5.88;;;256.90;2252.80;;;;;;5405502;26;20736;-77
2024/04/18 00:34:40;;;;;;;10.23;5.90;;;256.90;2252.80;;;;;;5399336;26;19996;-77
2024/04/18 00:37:06;;;;;;;11.48;5.65;;;256.90;2252.80;;;;;;5391662;26;20069;-77
2024/04/18 00:39:32;;;;;;;10.50;5.78;;;256.80;2252.80;;;;;;5401475;26;19999;-77
2024/04/18 00:41:59;;;;;;;9.98;5.47;;;256.70;2252.80;;;;;;5387129;26;20001;-77
2024/04/18 00:44:25;;;;;;;9.55;5.60;;;256.80;2252.80;;;;;;5383896;26;19997;-77
2024/04/18 00:46:52;;;;;;;10.70;5.25;;;256.80;2252.80;;;;;;5402806;26;20068;-77
2024/04/18 00:49:18;;;;;;;7.72;5.65;;;256.80;2252.80;;;;;;5417465;26;19991;-77
2024/04/18 00:51:45;;;;;;;8.70;5.53;;;256.90;2252.80;;;;;;5419840;26;20041;-77
2024/04/18 00:54:12;;;;;;;9.45;5.63;;;256.70;2252.80;;;;;;5418132;26;19999;-77
2024/04/18 00:56:40;;;;;;;8.88;6.00;;;256.60;2252.80;;;;;;5417237;26;20010;-78
2024/04/18 00:59:06;;;;;;;7.50;5.55;;;256.60;2252.80;;;;;;5419280;26;19992;-77
2024/04/18 01:01:32;;;;;;;9.38;5.72;;;256.50;2252.80;;;;;;5416974;26;20014;-77
2024/04/18 01:03:59;;;;;;;10.38;5.95;;;256.40;2252.80;;;;;;5417022;26;20414;-77
2024/04/18 01:06:25;;;;;;;11.20;6.38;;;256.40;2252.80;;;;;;5416762;26;20015;-77
2024/04/18 01:08:52;;;;;;;9.50;5.82;;;256.30;2252.80;;;;;;5419161;26;20331;-77
2024/04/18 01:11:17;;;;;;;11.80;6.38;;;256.20;2252.80;;;;;;5419589;26;20554;-77
2024/04/18 01:13:43;;;;;;;9.77;6.35;;;256.20;2252.80;;;;;;5417436;26;20011;-78
2024/04/18 01:16:09;;;;;;;10.43;6.90;;;256.20;2252.80;;;;;;5419077;26;20435;-77
2024/04/18 01:18:35;;;;;;;17.35;8.73;;;256.20;2252.80;;;;;;5419247;26;20004;-77
2024/04/18 01:21:01;;;;;;;19.92;10.57;;;256.40;2252.80;;;;;;5418891;26;20019;-77
2024/04/18 01:23:28;;;;;;;17.63;10.52;;;256.40;2252.80;;;;;;5416805;26;20011;-77
2024/04/18 01:25:54;;;;;;;36.22;17.75;;;256.40;2252.80;;;;;;5417161;26;20424;-77
2024/04/18 01:28:20;;;;;;;14.38;9.05;;;256.30;2252.80;;;;;;5418978;26;19999;-77
2024/04/18 01:30:47;;;;;;;14.18;7.85;;;256.30;2252.80;;;;;;5416339;26;20323;-77
2024/04/18 01:33:13;;;;;;;11.80;7.65;;;256.40;2252.80;;;;;;5416736;26;19999;-77
2024/04/18 01:35:39;;;;;;;12.73;7.78;;;256.30;2252.80;;;;;;5417084;26;20000;-77
2024/04/18 01:38:08;;;;;;;13.40;6.95;;;256.30;2252.80;;;;;;5418150;26;20015;-78
2024/04/18 01:40:34;;;;;;;10.85;7.43;;;256.30;2252.80;;;;;;5418864;26;20351;-77
2024/04/18 01:42:59;;;;;;;10.98;7.00;;;256.40;2252.80;;;;;;5419482;26;20007;-77
2024/04/18 01:45:25;;;;;;;10.95;7.10;;;256.40;2252.80;;;;;;5416486;26;19999;-77
2024/04/18 01:47:51;;;;;;;12.95;7.78;;;256.40;2252.80;;;;;;5416835;26;20035;-77
2024/04/18 01:50:17;;;;;;;15.25;7.95;;;256.40;2252.80;;;;;;5418487;26;20006;-77
2024/04/18 01:52:43;;;;;;;;;;;256.40;2252.80;;;;;;5417210;26;20000;-77
2024/04/18 01:55:09;;;;;;;15.65;6.72;;;256.40;2252.80;;;;;;5417905;26;19925;-77
2024/04/18 01:57:36;;;;;;;16.08;8.43;;;256.30;2252.80;;;;;;5414911;26;19996;-77
2024/04/18 02:00:02;;;;;;;11.07;7.15;;;256.30;2252.80;;;;;;5418663;26;19999;-77
2024/04/18 02:02:28;;;;;;;14.40;7.90;;;256.30;2252.80;;;;;;5416423;26;20510;-77
2024/04/18 02:04:53;;;;;;;12.45;7.28;;;256.20;2252.80;;;;;;5418304;26;19999;-77
2024/04/18 02:07:19;;;;;;;14.32;7.20;;;256.20;2252.80;;;;;;5418071;26;20443;-77
2024/04/18 02:09:45;;;;;;;11.85;6.95;;;256.20;2252.80;;;;;;5410828;26;20004;-77
2024/04/18 02:12:11;;;;;;;14.68;7.80;;;256.20;2252.80;;;;;;5408103;26;20403;-77
2024/04/18 02:14:37;;;;;;;17.25;8.90;;;256.20;2252.80;;;;;;5416539;26;20006;-77
2024/04/18 02:17:03;;;;;;;13.40;8.00;;;256.30;2252.80;;;;;;5414220;26;20004;-77
2024/04/18 02:19:29;;;;;;;12.57;7.47;;;256.40;2252.80;;;;;;5418437;26;19999;-77
2024/04/18 02:21:55;;;;;;;13.85;7.03;;;256.40;2252.80;;;;;;5418182;26;20039;-77
2024/04/18 02:24:21;;;;;;;10.80;7.03;;;256.40;2252.80;;;;;;5418472;26;20006;-77
2024/04/18 02:26:49;;;;;;;10.82;7.47;;;256.40;2252.80;;;;;;5418025;26;20019;-77
2024/04/18 02:29:16;;;;;;;11.18;6.72;;;256.30;2252.80;;;;;;5418220;26;20010;-78
2024/04/18 02:31:41;;;;;;;11.32;7.25;;;256.20;2252.80;;;;;;5418335;26;20052;-77
2024/04/18 02:34:07;;;;;;;13.45;7.88;;;256.20;2252.80;;;;;;5418121;26;19995;-77
2024/04/18 02:36:33;;;;;;;10.15;6.53;;;256.10;2252.80;;;;;;5417378;26;20564;-77
2024/04/18 02:38:59;;;;;;;13.30;7.10;;;256.10;2252.80;;;;;;5417620;26;20035;-77
2024/04/18 02:41:25;;;;;;;13.95;6.57;;;231.30;2252.80;;;;;;5415937;26;20004;-78
2024/04/18 02:43:52;;;;;;;11.45;7.15;;;231.30;2252.80;;;;;;5418343;26;19995;-77
2024/04/18 02:46:18;;;;;;;11.85;7.40;;;231.30;2252.80;;;;;;5416045;26;20052;-78
2024/04/18 02:48:44;;;;;;;12.68;7.25;;;256.00;2252.80;;;;;;5418418;26;20000;-77
2024/04/18 02:51:10;;;;;;;12.57;6.93;;;256.00;2252.80;;;;;;5415636;26;19995;-77
2024/04/18 02:53:35;;;;;;;10.95;7.25;;;231.30;2252.80;;;;;;5417578;26;20000;-77
2024/04/18 02:56:01;;;;;;;9.95;6.82;;;256.00;2252.80;;;;;;5414700;26;20008;-77
2024/04/18 02:58:27;;;;;;;12.98;7.40;;;256.00;2252.80;;;;;;5416381;26;19999;-77
2024/04/18 03:00:53;;;;;;;14.77;7.35;;;256.00;2252.80;;;;;;5415282;26;20007;-77
2024/04/18 03:03:19;;;;;;;;;;;256.00;2252.80;;;;;;5416315;26;20039;-77
2024/04/18 03:05:44;;;;;;;14.43;7.53;;;231.30;2252.80;;;;;;5415471;26;19925;-77
2024/04/18 03:08:10;;;;;;;10.77;7.80;;;256.00;2252.80;;;;;;5417637;26;19995;-77
2024/04/18 03:10:36;;;;;;;12.98;7.78;;;256.10;2252.80;;;;;;5414645;26;20061;-77
2024/04/18 03:13:02;;;;;;;12.38;7.32;;;256.10;2252.80;;;;;;5415827;26;19996;-78
2024/04/18 03:15:28;;;;;;;;;;;256.00;2252.80;;;;;;5417818;26;20165;-78
2024/04/18 03:17:54;;;;;;;10.73;6.23;;;256.00;2252.80;;;;;;5417387;26;19949;-79
2024/04/18 03:20:21;;;;;;;11.98;8.10;;;231.30;2252.80;;;;;;5417529;26;19996;-77
2024/04/18 03:22:48;;;;;;;12.60;8.05;;;231.30;2252.80;;;;;;5418120;26;20077;-77
2024/04/18 03:25:14;;;;;;;11.13;7.75;;;231.30;2252.80;;;;;;5415370;26;20045;-77
2024/04/18 03:27:40;;;;;;;14.55;7.50;;;231.30;2252.80;;;;;;5417543;26;20003;-77
2024/04/18 03:30:06;;;;;;;10.55;7.38;;;231.30;2252.80;;;;;;5415625;26;20463;-77
2024/04/18 03:32:36;;;;;;;11.95;7.55;;;231.30;2252.80;;;;;;5414012;26;19995;-78
2024/04/18 03:35:02;;;;;;;11.50;7.50;;;231.30;2252.80;;;;;;5398515;26;20000;-77
2024/04/18 03:37:28;;;;;;;11.93;7.20;;;231.30;2252.80;;;;;;5405317;26;20055;-77
2024/04/18 03:39:55;;;;;;;11.93;7.70;;;231.30;2252.80;;;;;;5393708;26;19995;-77
2024/04/18 03:42:21;;;;;;;11.90;8.07;;;231.30;2252.80;;;;;;5401221;26;19995;-77
2024/04/18 03:44:47;;;;;;;13.73;8.13;;;231.30;2252.80;;;;;;5396262;26;20077;-78
2024/04/18 03:47:13;;;;;;;13.63;8.40;;;231.30;2252.80;;;;;;5393569;26;20000;-77
2024/04/18 03:49:39;;;;;;;13.13;7.85;;;256.00;2252.80;;;;;;5391180;26;20004;-77
2024/04/18 03:52:05;;;;;;;15.65;9.00;;;256.10;2252.80;;;;;;5417090;26;20073;-77
2024/04/18 03:54:33;;;;;;;13.57;8.15;;;256.00;2252.80;;;;;;5404248;26;20012;-77
2024/04/18 03:57:00;;;;;;;10.65;7.20;;;256.00;2252.80;;;;;;5396821;26;20000;-77
2024/04/18 03:59:26;;;;;;;11.13;7.78;;;256.10;2252.80;;;;;;5399430;26;20451;-77
2024/04/18 04:01:52;;;;;;;12.77;8.93;;;256.10;2252.80;;;;;;5411046;26;20072;-77
2024/04/18 04:04:17;;;;;;;14.45;8.90;;;256.10;2252.80;;;;;;5411850;26;20049;-77
2024/04/18 04:06:43;;;;;;;;;;;256.00;2252.80;;;;;;5413209;26;20014;-76
2024/04/18 04:09:09;;;;;;;12.93;8.25;;;256.00;2252.80;;;;;;5394568;26;19933;-77
2024/04/18 04:11:35;;;;;;;13.80;8.68;;;256.10;2252.80;;;;;;5389176;26;20008;-77
2024/04/18 04:14:01;;;;;;;14.57;8.70;;;231.30;2252.80;;;;;;5393881;26;20015;-77
2024/04/18 04:16:28;;;;;;;14.52;8.95;;;256.00;2252.80;;;;;;5406058;26;20316;-77
2024/04/18 04:18:55;;;;;;;12.13;7.63;;;256.10;2252.80;;;;;;5416002;26;20001;-77
2024/04/18 04:21:22;;;;;;;15.50;8.63;;;256.10;2252.80;;;;;;5389318;26;20076;-77
2024/04/18 04:23:48;;;;;;;15.57;8.43;;;256.10;2252.80;;;;;;5399323;26;20008;-77
2024/04/18 04:26:13;;;;;;;13.23;8.05;;;256.10;2252.80;;;;;;5401476;26;19996;-77
2024/04/18 04:28:39;;;;;;;11.45;8.25;;;256.00;2252.80;;;;;;5412741;26;20012;-77
2024/04/18 04:31:05;;;;;;;12.65;7.70;;;256.10;2252.80;;;;;;5411149;26;20053;-77
2024/04/18 04:33:32;;;;;;;11.07;6.90;;;256.10;2252.80;;;;;;5392144;26;20011;-77
2024/04/18 04:35:58;;;;;;;10.55;6.85;;;256.00;2252.80;;;;;;5396860;26;20018;-77
2024/04/18 04:38:24;;;;;;;12.25;7.78;;;256.00;2252.80;;;;;;5405222;26;20004;-77
2024/04/18 04:40:50;;;;;;;11.73;8.45;;;231.30;2252.80;;;;;;5406563;26;20000;-76
2024/04/18 04:43:16;;;;;;;12.80;7.57;;;231.30;2252.80;;;;;;5393455;26;20000;-76
2024/04/18 04:45:42;;;;;;;11.27;7.47;;;231.30;2252.80;;;;;;5399986;26;20039;-76
2024/04/18 04:48:08;;;;;;;;;;;231.30;2252.80;;;;;;5401474;26;20014;-75
2024/04/18 04:50:34;;;;;;;13.80;7.38;;;231.30;2252.80;;;;;;5394053;26;19925;-76
2024/04/18 04:52:59;;;;;;;10.48;7.28;;;231.30;2252.80;;;;;;5389366;26;20015;-76
2024/04/18 04:55:25;;;;;;;;;;;231.20;2252.80;;;;;;5413074;26;20022;-75
2024/04/18 04:57:51;;;;;;;11.02;6.78;;;231.20;2252.80;;;;;;5392658;26;19925;-76
2024/04/18 05:00:16;;;;;;;;;;;231.20;2252.80;;;;;;5400648;26;20011;-76
2024/04/18 05:02:42;;;;;;;9.98;7.28;;;231.20;2252.80;;;;;;5398003;26;19925;-76
2024/04/18 05:05:08;;;;;;;10.85;6.95;;;231.20;2252.80;;;;;;5400004;26;19991;-75
2024/04/18 05:07:34;;;;;;;12.25;6.53;;;231.20;2252.80;;;;;;5399289;26;20331;-75
2024/04/18 05:10:00;;;;;;;11.80;7.32;;;231.20;2252.80;;;;;;5407235;26;20011;-75
2024/04/18 05:12:26;;;;;;;12.95;7.25;;;231.20;2252.80;;;;;;5396910;26;19999;-76
2024/04/18 05:14:52;;;;;;;12.40;6.53;;;231.20;2252.80;;;;;;5399568;26;20000;-75
2024/04/18 05:17:18;;;;;;;10.60;6.95;;;231.20;2252.80;;;;;;5404826;26;20010;-76
2024/04/18 05:19:44;;;;;;;11.20;7.05;;;231.20;2252.80;;;;;;5408295;26;20015;-76
2024/04/18 05:22:10;;;;;;;12.93;7.95;;;231.20;2252.80;;;;;;5404986;26;19996;-77
2024/04/18 05:24:36;;;;;;;11.35;7.50;;;231.30;2252.80;;;;;;5398442;26;20010;-76
2024/04/18 05:27:02;;;;;;;10.70;6.65;;;231.30;2252.80;;;;;;5403565;26;20007;-77
2024/04/18 05:32:12;;;;;;;9.40;6.07;;;256.20;2252.80;;;;;;5406761;26;20032;-76
2024/04/18 05:34:38;;;;;;;9.38;6.35;;;256.10;2252.80;;;;;;5402396;26;20347;-76
2024/04/18 05:37:04;;;;;;;11.43;6.82;;;256.10;2252.80;;;;;;5400630;26;20007;-79
2024/04/18 05:39:30;;;;;;;9.68;6.40;;;256.10;2252.80;;;;;;5406404;26;20365;-77
2024/04/18 05:41:56;;;;;;;11.15;7.13;;;256.00;2252.80;;;;;;5400072;26;20091;-76
2024/04/18 05:44:24;;;;;;;12.80;8.80;;;231.30;2252.80;;;;;;5402744;26;19995;-77
2024/04/18 05:46:50;;;;;;;14.75;8.13;;;256.10;2252.80;;;;;;5405894;26;20351;-76
2024/04/18 05:49:16;;;;;;;10.27;6.90;;;256.10;2252.80;;;;;;5410103;26;20004;-77
2024/04/18 05:51:42;;;;;;;;;;;256.10;2252.80;;;;;;5398051;26;20003;-76
2024/04/18 05:54:08;;;;;;;9.73;6.35;;;256.20;2252.80;;;;;;5396449;26;20364;-76
2024/04/18 05:56:34;;;;;;;9.70;7.07;;;256.30;2252.80;;;;;;5400379;26;19996;-76
2024/04/18 05:59:00;;;;;;;11.98;6.93;;;256.20;2252.80;;;;;;5399805;26;19996;-76
2024/04/18 06:01:26;;;;;;;24.08;7.13;;;256.30;2252.80;;;;;;5398565;26;20010;-76
2024/04/18 06:03:51;;;;;;;;;;;256.30;2252.80;;;;;;5394129;26;20015;-75
2024/04/18 06:06:17;;;;;;;12.15;6.78;;;256.20;2252.80;;;;;;5401586;26;19925;-77
2024/04/18 06:08:43;;;;;;;11.77;7.05;;;256.20;2252.80;;;;;;5411647;26;20031;-76
2024/04/18 06:11:09;;;;;;;11.95;7.35;;;256.30;2252.80;;;;;;5399796;26;20068;-76
2024/04/18 06:13:38;;;;;;;9.95;7.18;;;256.40;2252.80;;;;;;5399888;26;20000;-78
2024/04/18 06:16:04;;;;;;;14.55;7.85;;;256.40;2252.80;;;;;;5393278;26;20007;-77
2024/04/18 06:18:30;;;;;;;13.60;7.47;;;256.30;2252.80;;;;;;5392747;26;19996;-77
2024/04/18 06:20:56;;;;;;;11.88;7.95;;;256.30;2252.80;;;;;;5399728;26;20027;-78
2024/04/18 06:23:22;;;;;;;10.35;7.18;;;256.40;2252.80;;;;;;5412458;26;19999;-77
2024/04/18 06:25:48;;;;;;;12.52;7.78;;;256.30;2252.80;;;;;;5395474;26;20011;-75
2024/04/18 06:28:14;;;;;;;10.63;7.20;;;256.30;2252.80;;;;;;5403318;26;20076;-74
2024/04/18 06:30:40;;;;;;;10.43;6.75;;;256.30;2252.80;;;;;;5400493;26;20011;-75
2024/04/18 06:33:06;;;;;;;10.55;7.68;;;256.40;2252.80;;;;;;5386194;26;20000;-75
2024/04/18 06:35:32;;;;;;;10.75;7.32;;;256.30;2252.80;;;;;;5406498;26;20007;-75
2024/04/18 06:37:58;;;;;;;10.95;6.60;;;256.30;2252.80;;;;;;5404652;26;20072;-75
2024/04/18 06:40:24;;;;;;;9.15;6.82;;;256.30;2252.80;;;;;;5393753;26;20301;-76
2024/04/18 06:42:52;;;;;;;12.13;7.55;;;256.30;2252.80;;;;;;5396000;26;19996;-75
2024/04/18 06:45:19;;;;;;;16.00;7.30;;;256.30;2252.80;;;;;;5391165;26;20016;-75
2024/04/18 06:47:45;;;;;;;13.00;8.80;;;256.50;2252.80;;;;;;5395712;26;20431;-75
2024/04/18 06:50:11;;;;;;;11.57;7.15;;;256.50;2252.80;;;;;;5408537;26;20010;-77
2024/04/18 06:52:37;;;;;;;14.88;7.78;;;256.50;2252.80;;;;;;5387441;26;20004;-75
2024/04/18 06:55:03;;;;;;;11.07;7.25;;;256.40;2252.80;;;;;;5396656;26;20004;-76
2024/04/18 06:57:28;;;;;;;11.10;7.82;;;256.40;2252.80;;;;;;5402498;26;20062;-75
2024/04/18 06:59:54;;;;;;;10.00;7.15;;;256.50;2252.80;;;;;;5410728;26;20441;-75
2024/04/18 07:02:20;;;;;;;13.45;7.72;;;256.40;2252.80;;;;;;5395386;26;20029;-76
2024/04/18 07:04:46;;;;;;;10.25;6.55;;;256.40;2252.80;;;;;;5387515;26;20001;-74
2024/04/18 07:07:13;;;;;;;10.85;6.80;;;256.40;2252.80;;;;;;5394178;26;20373;-76
2024/04/18 07:09:39;;;;;;;12.13;6.97;;;256.50;2252.80;;;;;;5394986;26;19996;-76
2024/04/18 07:12:07;;;;;;;11.90;7.32;;;256.50;2252.80;;;;;;5397786;26;20347;-75
2024/04/18 07:14:33;;;;;;;10.35;7.15;;;256.60;2252.80;;;;;;5388752;26;20004;-76
2024/04/18 07:16:59;;;;;;;12.27;8.38;;;256.50;2252.80;;;;;;5389562;26;20005;-75
2024/04/18 07:19:24;;;;;;;13.10;8.73;;;256.60;2252.80;;;;;;5403750;26;20007;-76
2024/04/18 07:21:50;;;;;;;16.42;9.27;;;256.60;2252.80;;;;;;5412010;26;20015;-75
2024/04/18 07:24:16;;;;;;;11.90;8.05;;;256.60;2252.80;;;;;;5398537;26;20434;-75
2024/04/18 07:26:42;;;;;;;11.52;7.03;;;256.60;2252.80;;;;;;5394383;26;20076;-76
2024/04/18 07:29:08;;;;;;;;;;;256.60;2252.80;;;;;;5391438;26;19996;-75
2024/04/18 07:31:34;;;;;;;18.07;9.57;;;256.80;2252.80;;;;;;5397852;26;20381;-75
2024/04/18 07:34:00;;;;;;;15.60;9.27;;;256.90;2252.80;;;;;;5398417;26;20443;-76
2024/04/18 07:36:26;;;;;;;;;;;256.90;2252.80;;;;;;5406507;26;20424;-77
2024/04/18 07:38:51;;;;;;;10.57;5.63;;;256.90;2252.80;;;;;;5405926;26;20349;-75
2024/04/18 07:41:18;;;;;;;14.80;7.00;;;256.90;2252.80;;;;;;5397267;26;20428;-74
2024/04/18 07:43:44;;;;;;;9.48;6.55;;;256.90;2252.80;;;;;;5411250;26;20003;-75
2024/04/18 07:46:12;;;;;;;9.75;6.70;;;281.60;2278.40;;;;;;5407692;26;20090;-75
2024/04/18 07:48:39;;;;;;;8.48;6.03;;;281.70;2278.40;;;;;;5415314;26;20013;-76
2024/04/18 07:51:05;;;;;;;12.05;7.20;;;281.80;2278.40;;;;;;5390330;26;20008;-75
2024/04/18 07:53:31;;;;;;;11.00;7.03;;;281.80;2278.40;;;;;;5398234;26;20029;-76
2024/04/18 07:55:57;;;;;;;11.77;6.80;;;281.80;2278.40;;;;;;5404611;26;20305;-75
2024/04/18 07:58:26;;;;;;;10.93;7.63;;;281.80;2278.40;;;;;;5393336;26;20077;-76
2024/04/18 08:00:52;;;;;;;9.23;6.35;;;281.80;2278.40;;;;;;5403369;26;19999;-77
2024/04/18 08:03:18;;;;;;;8.55;6.13;;;281.70;2278.40;;;;;;5389554;26;20000;-76
2024/04/18 08:05:45;;;;;;;11.07;6.28;;;281.60;2278.40;;;;;;5396264;26;20037;-76
2024/04/18 08:08:11;;;;;;;11.65;7.60;;;281.70;2278.40;;;;;;5397970;26;20009;-75
2024/04/18 08:10:38;;;;;;;8.98;6.10;;;281.60;2278.40;;;;;;5404501;26;19999;-75
2024/04/18 08:13:03;;;;;;;8.35;5.85;;;281.70;2278.40;;;;;;5392830;26;20012;-75
2024/04/18 08:15:29;;;;;;;9.60;5.85;;;281.70;2278.40;;;;;;5404947;26;20015;-77
2024/04/18 08:17:56;;;;;;;6.43;4.00;;;281.70;2278.40;;;;;;5403399;26;19991;-76
2024/04/18 08:20:22;;;;;;;6.63;4.18;;;281.60;2278.40;;;;;;5398644;26;20444;-74
2024/04/18 08:22:50;;;;;;;13.00;7.63;;;256.90;2252.80;;;;;;5411442;26;20007;-76
2024/04/18 08:25:16;;;;;;;8.35;4.55;;;281.60;2278.40;;;;;;5408011;26;20000;-75
2024/04/18 08:27:42;;;;;;;8.40;4.95;;;256.80;2252.80;;;;;;5397926;26;20349;-75
2024/04/18 08:30:08;;;;;;;7.90;4.00;;;256.80;2252.80;;;;;;5403057;26;19999;-76
2024/04/18 08:32:35;;;;;;;8.60;4.90;;;256.80;2252.80;;;;;;5404487;26;20036;-76
2024/04/18 08:35:00;;;;;;;7.80;4.68;;;256.70;2252.80;;;;;;5389056;26;20015;-77
2024/04/18 08:37:26;;;;;;;10.23;6.22;;;256.70;2252.80;;;;;;5405027;26;19995;-77
2024/04/18 08:39:52;;;;;;;10.75;6.47;;;256.60;2252.80;;;;;;5406369;26;20453;-78
2024/04/18 08:42:25;;;;;;;13.55;8.77;;;256.80;2252.80;;;;;;5404503;26;20003;-76
2024/04/18 08:44:55;;;;;;;13.93;8.57;;;256.80;2252.80;;;;;;5392493;26;20032;-78
2024/04/18 08:47:25;;;;;;;16.00;9.80;;;281.60;2278.40;;;;;;5411975;26;20002;-76
2024/04/18 08:49:54;;;;;;;21.55;11.02;;;256.90;2252.80;;;;;;5422776;26;20014;-76
2024/04/18 08:52:20;;;;;;;17.25;10.25;;;281.60;2278.40;;;;;;5398624;26;20047;-76
2024/04/18 08:54:46;;;;;;;16.75;10.70;;;256.80;2252.80;;;;;;5409573;26;20435;-75
2024/04/18 08:57:21;;;;;;;19.83;11.73;;;256.90;2252.80;;;;;;5394053;26;20001;-75
2024/04/18 08:59:58;;;;;;;17.00;11.15;;;281.60;2278.40;;;;;;5402921;26;19996;-76
2024/04/18 09:02:25;;;;;;;16.00;11.38;;;281.70;2278.40;;;;;;5404021;26;20018;-75
2024/04/18 09:04:51;;;;;;;15.80;11.00;;;281.80;2278.40;;;;;;5402160;26;20007;-75
2024/04/18 09:07:17;;;;;;;17.15;11.85;;;281.90;2278.40;;;;;;5409289;26;20456;-75
2024/04/18 09:09:43;;;;;;;16.00;11.10;;;281.80;2278.40;;;;;;5399990;26;19997;-76
2024/04/18 09:12:10;;;;;;;19.92;12.68;;;281.80;2278.40;;;;;;5387826;26;20069;-75
2024/04/18 09:14:37;;;;;;;19.60;11.80;;;282.00;2278.40;;;;;;5415555;26;20151;-76
2024/04/18 09:17:13;;;;;;;20.80;13.68;;;282.00;2278.40;;;;;;5393523;26;19999;-75
2024/04/18 09:19:38;;;;;;;16.52;10.38;;;282.10;2278.40;;;;;;5395481;26;20011;-75
2024/04/18 09:22:05;;;;;;;22.45;12.32;;;282.30;2278.40;;;;;;5390540;26;20478;-74
2024/04/18 09:24:31;;;;;;;20.25;12.90;;;282.30;2278.40;;;;;;5394134;26;19995;-76
2024/04/18 09:26:58;;;;;;;18.42;12.05;;;282.30;2278.40;;;;;;5400665;26;20041;-76
2024/04/18 09:29:24;;;;;;;20.40;12.73;;;282.20;2278.40;;;;;;5408648;26;20000;-76
2024/04/18 09:31:51;;;;;;;20.67;13.27;;;282.20;2278.40;;;;;;5395480;26;20050;-76
2024/04/18 09:34:18;;;;;;;19.70;12.45;;;282.20;2278.40;;;;;;5393710;26;20003;-76
2024/04/18 09:36:46;;;;;;;18.98;12.73;;;282.20;2278.40;;;;;;5395885;26;19992;-75
2024/04/18 09:39:27;;;;;;;20.08;13.15;;;282.30;2278.40;;;;;;5392875;26;19996;-76
2024/04/18 09:42:04;;;;;;;19.95;14.05;;;282.30;2278.40;;;;;;5403291;26;20007;-76
2024/04/18 09:44:31;;;;;;;24.45;14.15;;;282.40;2278.40;;;;;;5392922;26;19996;-76
2024/04/18 09:47:00;;;;;;;30.63;18.60;;;282.40;2278.40;;;;;;5393920;26;20459;-75
2024/04/18 09:49:27;;;;;;;77.95;30.30;;;307.20;2304.00;;;;;;5393203;26;20040;-76
2024/04/18 09:51:55;;;;;;;76.40;33.40;;;307.20;2304.00;;;;;;5406318;26;20014;-76
2024/04/18 09:54:21;;;;;;;42.33;23.45;;;282.50;2278.40;;;;;;5402341;26;20027;-76
2024/04/18 09:56:49;;;;;;;95.47;43.90;;;282.50;2278.40;;;;;;5402236;26;19999;-75
2024/04/18 09:59:16;;;;;;;134.85;58.22;;;282.50;2278.40;;;;;;5399506;26;20411;-76
2024/04/18 10:01:42;;;;;;;34.63;19.48;;;307.20;2304.00;;;;;;5404677;26;20344;-77
2024/04/18 10:04:09;;;;;;;23.20;14.65;;;307.20;2304.00;;;;;;5400338;26;20004;-76
2024/04/18 10:06:38;;;;;;;25.83;16.27;;;282.50;2278.40;;;;;;5394946;26;20010;-76
2024/04/18 10:09:07;;;;;;;21.48;14.52;;;307.20;2304.00;;;;;;5387135;26;20028;-76
2024/04/18 10:11:33;;;;;;;23.02;14.30;;;282.50;2278.40;;;;;;5399911;26;20004;-76
2024/04/18 10:14:03;;;;;;;23.85;14.93;;;307.30;2304.00;;;;;;5396683;26;20418;-75
2024/04/18 10:16:29;;;;;;;17.85;11.77;;;307.30;2304.00;;;;;;5409725;26;19995;-76
2024/04/18 10:18:55;;;;;;;40.30;24.80;;;307.20;2304.00;;;;;;5402353;26;19999;-76
2024/04/18 10:21:21;;;;;;;24.30;15.55;;;307.40;2304.00;;;;;;5387208;26;20335;-76
2024/04/18 10:23:48;;;;;;;23.40;15.57;;;307.50;2304.00;;;;;;5390726;26;19996;-75
2024/04/18 10:26:18;;;;;;;23.00;13.55;;;307.60;2304.00;;;;;;5400351;26;20000;-76
2024/04/18 10:28:45;;;;;;;91.45;31.08;;;307.60;2304.00;;;;;;5402019;26;20075;-76
2024/04/18 10:31:12;;;;;;;73.35;28.77;;;307.80;2304.00;;;;;;5396768;26;19995;-76
2024/04/18 10:33:39;;;;;;;25.52;15.50;;;307.90;2304.00;;;;;;5393495;26;20003;-76
2024/04/18 10:36:09;;;;;;;18.33;12.45;;;307.70;2304.00;;;;;;5403414;26;20012;-75
2024/04/18 10:38:40;;;;;;;16.27;10.57;;;307.80;2304.00;;;;;;5398655;26;19992;-76
2024/04/18 10:41:10;;;;;;;14.98;9.88;;;307.70;2304.00;;;;;;5388434;26;20011;-76
2024/04/18 10:43:37;;;;;;;21.67;13.15;;;307.50;2304.00;;;;;;5397760;26;20468;-75
2024/04/18 10:46:07;;;;;;;22.45;14.55;;;307.60;2304.00;;;;;;5400245;26;20011;-76
2024/04/18 10:48:36;;;;;;;23.58;12.65;;;307.70;2304.00;;;;;;5390592;26;20004;-76
2024/04/18 10:51:03;;;;;;;19.10;12.77;;;307.60;2304.00;;;;;;5405266;26;19996;-76
2024/04/18 10:53:34;;;;;;;12.50;8.80;;;307.60;2304.00;;;;;;5403964;26;20440;-77
2024/04/18 10:56:00;;;;;;;15.15;10.35;;;307.70;2304.00;;;;;;5392074;26;20482;-76
2024/04/18 10:58:27;;;;;;;20.48;12.73;;;307.90;2304.00;;;;;;5390739;26;20015;-77
2024/04/18 11:01:00;;;;;;;30.75;14.77;;;307.80;2304.00;;;;;;5398117;26;20050;-78
2024/04/18 11:03:27;;;;;;;25.80;12.57;;;307.90;2304.00;;;;;;5386189;26;20000;-78
2024/04/18 11:05:57;;;;;;;16.70;11.77;;;308.00;2304.00;;;;;;5402844;26;20000;-77
2024/04/18 11:08:27;;;;;;;15.98;12.13;;;332.80;2329.60;;;;;;5411684;26;20000;-77
2024/04/18 11:10:53;;;;;;;32.67;19.45;;;332.90;2329.60;;;;;;5394253;26;20024;-77
2024/04/18 11:13:19;;;;;;;27.05;16.08;;;333.10;2329.60;;;;;;5390318;26;20437;-77
2024/04/18 11:15:47;;;;;;;33.13;18.38;;;333.10;2329.60;;;;;;5399545;26;20011;-76
2024/04/18 11:18:13;;;;;;;24.88;16.20;;;333.00;2329.60;;;;;;5389825;26;20000;-76
2024/04/18 11:20:41;;;;;;;20.05;14.23;;;332.80;2329.60;;;;;;5394650;26;20090;-76
2024/04/18 11:23:07;;;;;;;27.42;19.38;;;308.00;2304.00;;;;;;5402261;26;20455;-76
2024/04/18 11:25:33;;;;;;;22.13;14.75;;;307.90;2304.00;;;;;;5397068;26;20008;-77
2024/04/18 11:27:59;;;;;;;31.27;15.25;;;308.00;2304.00;;;;;;5408273;26;20010;-80
2024/04/18 11:30:25;;;;;;;33.80;17.75;;;307.70;2304.00;;;;;;5390924;26;20447;-79
2024/04/18 11:32:55;;;;;;;32.33;18.40;;;307.60;2304.00;;;;;;5399088;26;20014;-78
2024/04/18 11:35:22;;;;;;;53.58;25.75;;;307.60;2304.00;;;;;;5398884;26;20003;-77
2024/04/18 11:37:48;;;;;;;35.97;20.08;;;307.60;2304.00;;;;;;5407943;26;20004;-76
2024/04/18 11:40:14;;;;;;;32.22;17.33;;;307.60;2304.00;;;;;;5408694;26;20427;-78
2024/04/18 11:42:41;;;;;;;20.15;14.50;;;307.80;2304.00;;;;;;5404375;26;20015;-78
2024/04/18 11:45:07;;;;;;;24.25;14.90;;;307.60;2304.00;;;;;;5392029;26;19997;-77
2024/04/18 11:47:33;;;;;;;28.17;15.68;;;307.70;2304.00;;;;;;5400039;26;20000;-76
2024/04/18 11:50:00;;;;;;;19.55;14.30;;;307.80;2304.00;;;;;;5390164;26;20000;-78
2024/04/18 11:52:26;;;;;;;22.05;15.00;;;308.00;2304.00;;;;;;5393633;26;20051;-78
2024/04/18 11:54:51;;;;;;;31.25;18.40;;;332.80;2329.60;;;;;;5410273;26;19992;-77
2024/04/18 11:57:17;;;;;;;34.00;18.42;;;333.00;2329.60;;;;;;5396039;26;20335;-74
2024/04/18 11:59:44;;;;;;;22.90;15.45;;;333.10;2329.60;;;;;;5391410;26;20000;-75
2024/04/18 12:02:10;;;;;;;45.17;23.90;;;333.10;2329.60;;;;;;5400297;26;20004;-77
2024/04/18 12:04:36;;;;;;;15.57;11.90;;;333.70;2329.60;;;;;;5393630;26;20149;-75
2024/04/18 12:07:02;;;;;;;15.98;11.50;;;333.30;2329.60;;;;;;5401558;26;20023;-75
2024/04/18 12:09:29;;;;;;;15.13;11.75;;;333.20;2329.60;;;;;;5406163;26;20072;-74